createdAt,value
2018-01-18T00:00:13.049Z,998.52
2018-01-18T00:01:13.085Z,998.55
2018-01-18T00:02:13.061Z,998.59
2018-01-18T00:03:13.117Z,998.59
2018-01-18T00:04:13.051Z,998.56
2018-01-18T00:05:13.096Z,998.54
2018-01-18T00:06:13.050Z,998.55
2018-01-18T00:07:13.083Z,998.54
2018-01-18T00:08:13.046Z,998.54
2018-01-18T00:09:13.053Z,998.54
2018-01-18T00:10:13.062Z,998.47
2018-01-18T00:11:13.045Z,998.47
2018-01-18T00:12:13.078Z,998.49
2018-01-18T00:13:13.040Z,998.47
2018-01-18T00:14:13.056Z,998.47
2018-01-18T00:15:13.042Z,998.46
2018-01-18T00:16:13.062Z,998.44
2018-01-18T00:17:13.039Z,998.42
2018-01-18T00:18:13.057Z,998.36
2018-01-18T00:19:13.070Z,998.34
2018-01-18T00:20:13.019Z,998.30
2018-01-18T00:21:13.014Z,998.30
2018-01-18T00:22:13.018Z,998.25
2018-01-18T00:23:13.015Z,998.17
2018-01-18T00:24:13.035Z,998.18
2018-01-18T00:25:13.019Z,998.21
2018-01-18T00:26:13.066Z,998.18
2018-01-18T00:27:13.046Z,998.20
2018-01-18T00:28:13.036Z,998.19
2018-01-18T00:29:13.046Z,998.21
2018-01-18T00:30:13.030Z,998.17
2018-01-18T00:31:13.002Z,998.18
2018-01-18T00:32:13.053Z,998.16
2018-01-18T00:33:13.026Z,998.15
2018-01-18T00:34:13.049Z,998.14
2018-01-18T00:35:12.998Z,998.09
2018-01-18T00:36:13.153Z,998.04
2018-01-18T00:37:13.021Z,997.99
2018-01-18T00:38:13.041Z,997.98
2018-01-18T00:39:13.012Z,998.01
2018-01-18T00:40:13.019Z,997.96
2018-01-18T00:41:12.996Z,997.94
2018-01-18T00:42:13.015Z,997.93
2018-01-18T00:43:12.994Z,997.94
2018-01-18T00:44:13.032Z,997.88
2018-01-18T00:45:13.026Z,997.86
2018-01-18T00:46:12.986Z,997.80
2018-01-18T00:47:13.043Z,997.79
2018-01-18T00:48:13.026Z,997.76
2018-01-18T00:49:13.541Z,997.69
2018-01-18T00:50:13.019Z,997.68
2018-01-18T00:51:12.985Z,997.63
2018-01-18T00:52:12.984Z,997.63
2018-01-18T00:53:12.990Z,997.60
2018-01-18T00:54:13.012Z,997.61
2018-01-18T00:55:12.981Z,997.63
2018-01-18T00:56:13.006Z,997.63
2018-01-18T00:57:13.001Z,997.63
2018-01-18T00:58:12.990Z,997.61
2018-01-18T00:59:13.539Z,997.62
2018-01-18T01:00:13.005Z,997.61
2018-01-18T01:01:12.972Z,997.57
2018-01-18T01:02:13.035Z,997.54
2018-01-18T01:03:12.971Z,997.53
2018-01-18T01:04:12.965Z,997.56
2018-01-18T01:05:12.965Z,997.51
2018-01-18T01:06:12.969Z,997.51
2018-01-18T01:07:12.983Z,997.43
2018-01-18T01:08:12.974Z,997.41
2018-01-18T01:09:12.989Z,997.37
2018-01-18T01:10:12.969Z,997.35
2018-01-18T01:11:12.991Z,997.40
2018-01-18T01:12:13.542Z,997.40
2018-01-18T01:13:13.005Z,997.32
2018-01-18T01:14:13.020Z,997.41
2018-01-18T01:15:13.046Z,997.33
2018-01-18T01:16:12.960Z,997.35
2018-01-18T01:17:12.996Z,997.28
2018-01-18T01:18:13.026Z,997.21
2018-01-18T01:19:12.942Z,997.17
2018-01-18T01:20:13.009Z,997.13
2018-01-18T01:21:12.970Z,997.07
2018-01-18T01:22:12.982Z,997.12
2018-01-18T01:23:12.947Z,997.12
2018-01-18T01:24:12.970Z,997.15
2018-01-18T01:25:12.955Z,997.09
2018-01-18T01:26:12.968Z,997.10
2018-01-18T01:27:12.969Z,997.09
2018-01-18T01:28:12.933Z,997.00
2018-01-18T01:29:12.935Z,996.94
2018-01-18T01:30:12.940Z,996.93
2018-01-18T01:31:12.935Z,996.93
2018-01-18T01:32:12.976Z,996.93
2018-01-18T01:33:13.547Z,996.89
2018-01-18T01:34:12.958Z,996.88
2018-01-18T01:35:12.969Z,996.85
2018-01-18T01:36:12.942Z,996.82
2018-01-18T01:37:12.976Z,996.72
2018-01-18T01:38:12.973Z,996.61
2018-01-18T01:39:12.977Z,996.64
2018-01-18T01:40:12.958Z,996.57
2018-01-18T01:41:12.927Z,996.58
2018-01-18T01:42:12.924Z,996.56
2018-01-18T01:43:12.922Z,996.54
2018-01-18T01:44:12.952Z,996.48
2018-01-18T01:45:12.924Z,996.49
2018-01-18T01:46:13.077Z,996.48
2018-01-18T01:47:12.965Z,996.48
2018-01-18T01:48:12.923Z,996.43
2018-01-18T01:49:12.964Z,996.44
2018-01-18T01:50:12.932Z,996.51
2018-01-18T01:51:12.978Z,996.47
2018-01-18T01:52:12.964Z,996.46
2018-01-18T01:53:12.957Z,996.50
2018-01-18T01:54:12.964Z,996.46
2018-01-18T01:55:12.918Z,996.40
2018-01-18T01:56:12.926Z,996.44
2018-01-18T01:57:12.944Z,996.38
2018-01-18T01:58:12.907Z,996.33
2018-01-18T01:59:13.549Z,996.30
2018-01-18T02:00:12.907Z,996.23
2018-01-18T02:01:12.906Z,996.18
2018-01-18T02:02:12.952Z,996.09
2018-01-18T02:03:12.919Z,996.06
2018-01-18T02:04:12.920Z,996.03
2018-01-18T02:05:12.918Z,995.99
2018-01-18T02:06:12.940Z,995.95
2018-01-18T02:07:12.935Z,995.90
2018-01-18T02:08:12.908Z,995.95
2018-01-18T02:09:12.910Z,995.98
2018-01-18T02:10:12.899Z,995.95
2018-01-18T02:11:12.891Z,995.92
2018-01-18T02:12:12.894Z,995.89
2018-01-18T02:13:12.890Z,995.89
2018-01-18T02:14:12.958Z,995.84
2018-01-18T02:15:12.976Z,995.73
2018-01-18T02:16:12.910Z,995.79
2018-01-18T02:17:12.947Z,995.67
2018-01-18T02:18:12.947Z,995.69
2018-01-18T02:19:12.914Z,995.57
2018-01-18T02:20:12.886Z,995.61
2018-01-18T02:21:12.962Z,995.58
2018-01-18T02:22:12.891Z,995.56
2018-01-18T02:23:12.900Z,995.54
2018-01-18T02:24:12.880Z,995.54
2018-01-18T02:25:12.884Z,995.49
2018-01-18T02:26:12.890Z,995.42
2018-01-18T02:27:12.896Z,995.39
2018-01-18T02:28:12.939Z,995.34
2018-01-18T02:29:12.915Z,995.30
2018-01-18T02:30:13.563Z,995.18
2018-01-18T02:31:12.910Z,995.16
2018-01-18T02:32:12.904Z,995.11
2018-01-18T02:33:12.909Z,995.12
2018-01-18T02:34:12.919Z,995.09
2018-01-18T02:35:12.911Z,995.01
2018-01-18T02:36:12.950Z,995.01
2018-01-18T02:37:12.911Z,994.94
2018-01-18T02:38:12.890Z,994.93
2018-01-18T02:39:14.652Z,994.93
2018-01-18T02:40:12.870Z,994.88
2018-01-18T02:41:12.870Z,994.85
2018-01-18T02:42:12.870Z,994.85
2018-01-18T02:43:13.559Z,994.82
2018-01-18T02:44:12.878Z,994.76
2018-01-18T02:45:12.879Z,994.68
2018-01-18T02:46:12.882Z,994.64
2018-01-18T02:47:12.900Z,994.67
2018-01-18T02:48:12.900Z,994.55
2018-01-18T02:49:12.862Z,994.56
2018-01-18T02:50:12.875Z,994.49
2018-01-18T02:51:12.900Z,994.52
2018-01-18T02:52:12.891Z,994.48
2018-01-18T02:53:12.880Z,994.46
2018-01-18T02:54:12.877Z,994.41
2018-01-18T02:55:12.891Z,994.44
2018-01-18T02:56:13.003Z,994.45
2018-01-18T02:57:12.878Z,994.43
2018-01-18T02:58:12.866Z,994.36
2018-01-18T02:59:12.884Z,994.38
2018-01-18T03:00:12.915Z,994.37
2018-01-18T03:01:12.887Z,994.32
2018-01-18T03:02:12.874Z,994.31
2018-01-18T03:03:12.911Z,994.41
2018-01-18T03:04:12.854Z,994.41
2018-01-18T03:05:12.860Z,994.42
2018-01-18T03:06:12.843Z,994.37
2018-01-18T03:07:12.851Z,994.45
2018-01-18T03:08:12.869Z,994.42
2018-01-18T03:09:12.915Z,994.26
2018-01-18T03:10:12.857Z,994.18
2018-01-18T03:11:12.842Z,994.10
2018-01-18T03:12:12.851Z,994.19
2018-01-18T03:13:12.874Z,994.12
2018-01-18T03:14:12.878Z,994.11
2018-01-18T03:15:12.847Z,994.12
2018-01-18T03:16:12.839Z,994.11
2018-01-18T03:17:12.859Z,993.99
2018-01-18T03:18:12.872Z,993.93
2018-01-18T03:19:12.848Z,993.80
2018-01-18T03:20:12.858Z,993.75
2018-01-18T03:21:12.842Z,993.71
2018-01-18T03:22:12.867Z,993.68
2018-01-18T03:23:12.874Z,993.60
2018-01-18T03:24:12.831Z,993.55
2018-01-18T03:25:12.870Z,993.43
2018-01-18T03:26:12.862Z,993.41
2018-01-18T03:27:13.564Z,993.38
2018-01-18T03:28:12.866Z,993.29
2018-01-18T03:29:12.867Z,993.30
2018-01-18T03:30:12.877Z,993.25
2018-01-18T03:31:12.886Z,993.12
2018-01-18T03:32:12.828Z,993.13
2018-01-18T03:33:12.828Z,993.17
2018-01-18T03:34:12.820Z,993.04
2018-01-18T03:35:12.903Z,993.07
2018-01-18T03:36:12.835Z,992.99
2018-01-18T03:37:12.812Z,992.92
2018-01-18T03:38:12.890Z,992.94
2018-01-18T03:39:12.899Z,992.90
2018-01-18T03:40:12.889Z,992.85
2018-01-18T03:41:12.821Z,992.78
2018-01-18T03:42:12.823Z,992.81
2018-01-18T03:43:12.887Z,992.76
2018-01-18T03:44:12.814Z,992.77
2018-01-18T03:45:12.827Z,992.74
2018-01-18T03:46:12.849Z,992.70
2018-01-18T03:47:12.831Z,992.76
2018-01-18T03:48:12.826Z,992.61
2018-01-18T03:49:12.816Z,992.59
2018-01-18T03:50:12.826Z,992.48
2018-01-18T03:51:12.864Z,992.40
2018-01-18T03:52:12.847Z,992.34
2018-01-18T03:53:12.834Z,992.27
2018-01-18T03:54:12.872Z,992.24
2018-01-18T03:55:12.829Z,992.21
2018-01-18T03:56:12.855Z,992.24
2018-01-18T03:57:12.842Z,992.18
2018-01-18T03:58:12.881Z,992.08
2018-01-18T03:59:12.845Z,992.02
2018-01-18T04:00:12.819Z,991.96
2018-01-18T04:01:12.898Z,991.90
2018-01-18T04:02:12.852Z,991.81
2018-01-18T04:03:12.829Z,991.68
2018-01-18T04:04:12.864Z,991.65
2018-01-18T04:05:12.816Z,991.59
2018-01-18T04:06:12.835Z,991.55
2018-01-18T04:07:12.823Z,991.53
2018-01-18T04:08:12.835Z,991.49
2018-01-18T04:09:12.812Z,991.41
2018-01-18T04:10:12.841Z,991.34
2018-01-18T04:11:12.832Z,991.30
2018-01-18T04:12:12.815Z,991.20
2018-01-18T04:13:12.850Z,991.21
2018-01-18T04:14:12.857Z,991.08
2018-01-18T04:15:12.811Z,991.01
2018-01-18T04:16:12.794Z,991.05
2018-01-18T04:17:12.790Z,990.93
2018-01-18T04:18:12.801Z,990.94
2018-01-18T04:19:12.837Z,990.91
2018-01-18T04:20:12.859Z,990.89
2018-01-18T04:21:12.831Z,990.80
2018-01-18T04:22:12.791Z,990.77
2018-01-18T04:23:12.824Z,990.71
2018-01-18T04:24:12.804Z,990.70
2018-01-18T04:25:12.815Z,990.55
2018-01-18T04:26:12.810Z,990.42
2018-01-18T04:27:12.789Z,990.40
2018-01-18T04:28:12.781Z,990.32
2018-01-18T04:29:12.837Z,990.30
2018-01-18T04:30:12.837Z,990.24
2018-01-18T04:31:12.793Z,990.22
2018-01-18T04:32:12.787Z,990.03
2018-01-18T04:33:12.782Z,989.95
2018-01-18T04:34:12.805Z,989.93
2018-01-18T04:35:12.823Z,989.77
2018-01-18T04:36:12.810Z,989.71
2018-01-18T04:37:12.805Z,989.73
2018-01-18T04:38:12.812Z,989.58
2018-01-18T04:39:12.786Z,989.55
2018-01-18T04:40:13.580Z,989.43
2018-01-18T04:41:12.826Z,989.44
2018-01-18T04:42:12.811Z,989.41
2018-01-18T04:43:12.811Z,989.29
2018-01-18T04:44:12.778Z,989.22
2018-01-18T04:45:12.768Z,989.16
2018-01-18T04:46:12.844Z,989.11
2018-01-18T04:47:12.789Z,988.99
2018-01-18T04:48:12.811Z,988.91
2018-01-18T04:49:12.794Z,988.87
2018-01-18T04:50:12.784Z,988.82
2018-01-18T04:51:12.769Z,988.81
2018-01-18T04:52:12.770Z,988.74
2018-01-18T04:53:12.803Z,988.67
2018-01-18T04:54:12.794Z,988.55
2018-01-18T04:55:12.765Z,988.52
2018-01-18T04:56:12.768Z,988.51
2018-01-18T04:57:12.794Z,988.55
2018-01-18T04:58:12.895Z,988.27
2018-01-18T04:59:12.772Z,988.35
2018-01-18T05:00:12.806Z,988.38
2018-01-18T05:01:12.835Z,988.28
2018-01-18T05:02:12.868Z,988.23
2018-01-18T05:03:12.788Z,988.08
2018-01-18T05:04:12.815Z,988.04
2018-01-18T05:05:12.763Z,987.96
2018-01-18T05:06:12.810Z,987.87
2018-01-18T05:07:12.759Z,987.88
2018-01-18T05:08:12.793Z,987.78
2018-01-18T05:09:12.770Z,987.71
2018-01-18T05:10:12.775Z,987.71
2018-01-18T05:11:12.884Z,987.71
2018-01-18T05:12:12.792Z,987.80
2018-01-18T05:13:12.811Z,987.64
2018-01-18T05:14:12.745Z,987.57
2018-01-18T05:15:12.744Z,987.43
2018-01-18T05:16:12.795Z,987.48
2018-01-18T05:17:12.785Z,987.25
2018-01-18T05:18:12.767Z,987.20
2018-01-18T05:19:12.835Z,987.15
2018-01-18T05:20:12.738Z,987.12
2018-01-18T05:21:12.767Z,986.99
2018-01-18T05:22:12.765Z,986.85
2018-01-18T05:23:12.729Z,986.74
2018-01-18T05:24:12.808Z,986.68
2018-01-18T05:25:12.760Z,986.58
2018-01-18T05:26:12.755Z,986.63
2018-01-18T05:27:12.747Z,986.55
2018-01-18T05:28:12.750Z,986.52
2018-01-18T05:29:12.732Z,986.45
2018-01-18T05:30:12.739Z,986.50
2018-01-18T05:31:12.796Z,986.47
2018-01-18T05:32:12.726Z,986.49
2018-01-18T05:33:12.736Z,986.34
2018-01-18T05:34:12.735Z,986.30
2018-01-18T05:35:12.760Z,986.34
2018-01-18T05:36:12.829Z,986.35
2018-01-18T05:37:13.594Z,986.27
2018-01-18T05:38:12.787Z,986.25
2018-01-18T05:39:12.722Z,986.19
2018-01-18T05:40:12.730Z,986.02
2018-01-18T05:41:12.714Z,985.97
2018-01-18T05:42:12.758Z,985.86
2018-01-18T05:43:12.706Z,985.73
2018-01-18T05:44:12.709Z,985.53
2018-01-18T05:45:12.707Z,985.56
2018-01-18T05:46:12.736Z,985.47
2018-01-18T05:47:12.716Z,985.43
2018-01-18T05:48:12.765Z,985.39
2018-01-18T05:49:12.704Z,985.47
2018-01-18T05:50:12.692Z,985.65
2018-01-18T05:51:12.737Z,985.40
2018-01-18T05:52:12.778Z,985.31
2018-01-18T05:53:12.702Z,985.41
2018-01-18T05:54:12.730Z,985.29
2018-01-18T05:55:12.692Z,985.27
2018-01-18T05:56:12.730Z,985.20
2018-01-18T05:57:12.705Z,985.01
2018-01-18T05:58:12.757Z,984.93
2018-01-18T05:59:12.742Z,984.96
2018-01-18T06:00:12.700Z,984.87
2018-01-18T06:01:12.722Z,984.85
2018-01-18T06:02:12.689Z,984.77
2018-01-18T06:03:12.729Z,984.69
2018-01-18T06:04:12.697Z,984.64
2018-01-18T06:05:12.739Z,984.64
2018-01-18T06:06:12.682Z,984.48
2018-01-18T06:07:12.702Z,984.45
2018-01-18T06:08:12.695Z,984.39
2018-01-18T06:09:12.698Z,984.34
2018-01-18T06:10:12.705Z,984.29
2018-01-18T06:11:12.716Z,984.28
2018-01-18T06:12:12.681Z,984.13
2018-01-18T06:13:12.659Z,984.02
2018-01-18T06:14:12.701Z,983.96
2018-01-18T06:15:12.678Z,983.88
2018-01-18T06:16:12.653Z,983.82
2018-01-18T06:17:12.692Z,983.78
2018-01-18T06:18:12.694Z,983.78
2018-01-18T06:19:12.673Z,983.60
2018-01-18T06:20:12.654Z,983.72
2018-01-18T06:21:12.643Z,983.60
2018-01-18T06:22:12.644Z,983.50
2018-01-18T06:23:12.679Z,983.56
2018-01-18T06:24:12.654Z,983.46
2018-01-18T06:25:12.667Z,983.42
2018-01-18T06:26:12.642Z,983.41
2018-01-18T06:27:12.741Z,983.41
2018-01-18T06:28:12.684Z,983.29
2018-01-18T06:29:12.635Z,983.11
2018-01-18T06:30:12.700Z,983.21
2018-01-18T06:31:12.637Z,983.06
2018-01-18T06:32:12.659Z,983.14
2018-01-18T06:33:12.645Z,983.08
2018-01-18T06:34:12.691Z,982.94
2018-01-18T06:35:12.657Z,982.77
2018-01-18T06:36:12.657Z,982.83
2018-01-18T06:37:12.635Z,982.76
2018-01-18T06:38:12.652Z,982.71
2018-01-18T06:39:12.655Z,982.77
2018-01-18T06:40:12.655Z,982.79
2018-01-18T06:41:12.642Z,982.84
2018-01-18T06:42:12.643Z,982.75
2018-01-18T06:43:12.681Z,982.70
2018-01-18T06:44:12.637Z,982.72
2018-01-18T06:45:12.654Z,982.67
2018-01-18T06:46:12.607Z,982.60
2018-01-18T06:47:12.614Z,982.51
2018-01-18T06:48:12.666Z,982.63
2018-01-18T06:49:13.105Z,982.48
2018-01-18T06:50:12.621Z,982.44
2018-01-18T06:51:12.620Z,982.43
2018-01-18T06:52:12.607Z,982.47
2018-01-18T06:53:12.610Z,982.47
2018-01-18T06:54:13.187Z,982.40
2018-01-18T06:55:12.633Z,982.38
2018-01-18T06:56:12.608Z,982.25
2018-01-18T06:57:12.626Z,982.20
2018-01-18T06:58:12.588Z,982.26
2018-01-18T06:59:12.609Z,982.08
2018-01-18T07:00:12.595Z,982.05
2018-01-18T07:01:12.603Z,981.94
2018-01-18T07:02:12.600Z,981.89
2018-01-18T07:03:12.612Z,981.90
2018-01-18T07:04:12.603Z,981.81
2018-01-18T07:05:12.675Z,981.89
2018-01-18T07:06:12.587Z,981.85
2018-01-18T07:07:12.616Z,981.86
2018-01-18T07:08:12.591Z,981.68
2018-01-18T07:09:12.622Z,981.65
2018-01-18T07:10:12.589Z,981.58
2018-01-18T07:11:12.609Z,981.57
2018-01-18T07:12:12.594Z,981.68
2018-01-18T07:13:12.599Z,981.51
2018-01-18T07:14:12.578Z,981.49
2018-01-18T07:15:12.579Z,981.30
2018-01-18T07:16:12.587Z,981.32
2018-01-18T07:17:12.574Z,981.38
2018-01-18T07:18:12.689Z,981.10
2018-01-18T07:19:12.595Z,981.08
2018-01-18T07:20:12.615Z,980.94
2018-01-18T07:21:12.577Z,980.90
2018-01-18T07:22:12.601Z,980.93
2018-01-18T07:23:12.593Z,980.85
2018-01-18T07:24:12.583Z,981.00
2018-01-18T07:25:12.569Z,980.82
2018-01-18T07:26:12.619Z,980.48
2018-01-18T07:27:12.644Z,980.61
2018-01-18T07:28:12.562Z,980.68
2018-01-18T07:29:12.590Z,980.69
2018-01-18T07:30:12.581Z,980.69
2018-01-18T07:31:12.584Z,980.64
2018-01-18T07:32:12.575Z,980.84
2018-01-18T07:33:12.593Z,980.69
2018-01-18T07:34:12.570Z,980.62
2018-01-18T07:35:12.581Z,980.55
2018-01-18T07:36:12.651Z,980.54
2018-01-18T07:37:12.589Z,980.58
2018-01-18T07:38:12.600Z,980.47
2018-01-18T07:39:12.595Z,980.45
2018-01-18T07:40:12.676Z,980.41
2018-01-18T07:41:13.118Z,980.18
2018-01-18T07:42:12.559Z,980.12
2018-01-18T07:43:13.117Z,980.15
2018-01-18T07:44:12.575Z,980.11
2018-01-18T07:45:12.608Z,980.12
2018-01-18T07:46:13.113Z,980.19
2018-01-18T07:47:12.658Z,980.39
2018-01-18T07:48:12.561Z,980.21
2018-01-18T07:49:12.604Z,980.15
2018-01-18T07:50:12.610Z,980.23
2018-01-18T07:51:12.607Z,980.05
2018-01-18T07:52:12.565Z,980.00
2018-01-18T07:53:12.547Z,980.09
2018-01-18T07:54:12.597Z,980.06
2018-01-18T07:55:12.591Z,979.91
2018-01-18T07:56:12.557Z,979.91
2018-01-18T07:57:12.546Z,979.83
2018-01-18T07:58:12.552Z,979.85
2018-01-18T07:59:12.648Z,979.78
2018-01-18T08:00:12.552Z,979.79
2018-01-18T08:01:12.565Z,979.74
2018-01-18T08:02:12.586Z,979.62
2018-01-18T08:03:12.591Z,979.62
2018-01-18T08:04:12.582Z,979.75
2018-01-18T08:05:12.604Z,979.76
2018-01-18T08:06:12.555Z,979.75
2018-01-18T08:07:12.569Z,979.73
2018-01-18T08:08:12.601Z,979.77
2018-01-18T08:09:12.540Z,979.70
2018-01-18T08:10:12.622Z,979.73
2018-01-18T08:11:12.636Z,979.66
2018-01-18T08:12:13.118Z,979.60
2018-01-18T08:13:12.579Z,979.47
2018-01-18T08:14:12.559Z,979.50
2018-01-18T08:15:12.639Z,979.55
2018-01-18T08:16:12.591Z,979.41
2018-01-18T08:17:13.656Z,979.37
2018-01-18T08:18:13.052Z,979.23
2018-01-18T08:19:12.601Z,979.30
2018-01-18T08:20:12.914Z,979.40
2018-01-18T08:21:12.556Z,979.33
2018-01-18T08:22:12.583Z,979.38
2018-01-18T08:23:12.590Z,979.27
2018-01-18T08:24:12.545Z,979.26
2018-01-18T08:25:12.558Z,979.15
2018-01-18T08:26:12.555Z,979.00
2018-01-18T08:27:12.573Z,979.17
2018-01-18T08:28:12.571Z,979.06
2018-01-18T08:29:12.630Z,979.19
2018-01-18T08:30:13.133Z,979.16
2018-01-18T08:31:13.127Z,979.22
2018-01-18T08:32:12.598Z,979.27
2018-01-18T08:33:12.609Z,979.32
2018-01-18T08:34:12.579Z,979.30
2018-01-18T08:35:12.562Z,979.24
2018-01-18T08:36:12.641Z,979.20
2018-01-18T08:37:13.137Z,979.20
2018-01-18T08:38:12.567Z,979.13
2018-01-18T08:39:12.564Z,979.12
2018-01-18T08:40:12.573Z,979.34
2018-01-18T08:41:12.559Z,979.22
2018-01-18T08:42:12.567Z,978.91
2018-01-18T08:43:12.551Z,978.95
2018-01-18T08:44:12.602Z,978.94
2018-01-18T08:45:12.574Z,978.87
2018-01-18T08:46:12.590Z,978.81
2018-01-18T08:47:12.582Z,978.65
2018-01-18T08:48:12.581Z,978.80
2018-01-18T08:49:13.244Z,978.60
2018-01-18T08:50:13.217Z,978.73
2018-01-18T08:51:12.739Z,978.80
2018-01-18T08:52:12.550Z,978.85
2018-01-18T08:53:13.250Z,978.77
2018-01-18T08:54:12.645Z,978.76
2018-01-18T08:55:12.553Z,978.95
2018-01-18T08:56:13.135Z,978.67
2018-01-18T08:57:12.560Z,978.76
2018-01-18T08:58:12.575Z,978.63
2018-01-18T08:59:12.564Z,978.75
2018-01-18T09:00:13.211Z,978.68
2018-01-18T09:01:12.586Z,978.71
2018-01-18T09:02:12.571Z,978.67
2018-01-18T09:03:12.571Z,978.70
2018-01-18T09:04:12.910Z,978.51
2018-01-18T09:05:12.594Z,978.59
2018-01-18T09:06:12.565Z,978.47
2018-01-18T09:07:12.626Z,978.55
2018-01-18T09:08:12.570Z,978.34
2018-01-18T09:09:12.578Z,978.67
2018-01-18T09:10:12.560Z,978.42
2018-01-18T09:11:12.569Z,978.37
2018-01-18T09:12:12.747Z,978.40
2018-01-18T09:13:12.611Z,978.45
2018-01-18T09:14:12.570Z,978.51
2018-01-18T09:15:12.576Z,978.45
2018-01-18T09:16:12.579Z,978.34
2018-01-18T09:17:12.560Z,978.37
2018-01-18T09:18:12.569Z,978.23
2018-01-18T09:19:12.651Z,978.18
2018-01-18T09:20:12.590Z,978.23
2018-01-18T09:21:12.594Z,978.22
2018-01-18T09:22:12.677Z,978.04
2018-01-18T09:23:12.630Z,978.36
2018-01-18T09:24:12.629Z,978.39
2018-01-18T09:25:12.591Z,978.24
2018-01-18T09:26:12.596Z,978.40
2018-01-18T09:27:13.655Z,978.53
2018-01-18T09:28:12.740Z,978.43
2018-01-18T09:29:12.617Z,978.44
2018-01-18T09:30:12.630Z,978.48
2018-01-18T09:31:12.579Z,978.49
2018-01-18T09:32:12.624Z,978.34
2018-01-18T09:33:12.579Z,978.44
2018-01-18T09:34:12.581Z,978.60
2018-01-18T09:35:12.616Z,978.44
2018-01-18T09:36:12.647Z,978.43
2018-01-18T09:37:12.593Z,978.24
2018-01-18T09:38:12.581Z,978.52
2018-01-18T09:39:12.621Z,978.42
2018-01-18T09:40:12.663Z,978.61
2018-01-18T09:41:12.606Z,978.47
2018-01-18T09:42:12.630Z,978.42
2018-01-18T09:43:12.665Z,978.47
2018-01-18T09:44:12.644Z,978.73
2018-01-18T09:45:12.584Z,978.70
2018-01-18T09:46:12.652Z,978.66
2018-01-18T09:47:12.594Z,978.23
2018-01-18T09:48:12.599Z,978.85
2018-01-18T09:49:12.618Z,978.83
2018-01-18T09:50:12.894Z,978.60
2018-01-18T09:51:12.601Z,978.60
2018-01-18T09:52:12.591Z,978.70
2018-01-18T09:53:12.588Z,978.64
2018-01-18T09:54:12.636Z,978.74
2018-01-18T09:55:13.147Z,978.70
2018-01-18T09:56:13.223Z,978.63
2018-01-18T09:57:12.658Z,978.84
2018-01-18T09:58:12.727Z,978.83
2018-01-18T09:59:12.609Z,978.54
2018-01-18T10:00:12.651Z,978.46
2018-01-18T10:01:12.699Z,978.76
2018-01-18T10:02:13.241Z,978.76
2018-01-18T10:03:12.670Z,978.71
2018-01-18T10:04:12.644Z,978.55
2018-01-18T10:05:12.631Z,978.53
2018-01-18T10:06:12.658Z,978.57
2018-01-18T10:07:12.722Z,978.47
2018-01-18T10:08:15.357Z,978.51
2018-01-18T10:09:12.624Z,978.56
2018-01-18T10:10:13.148Z,978.12
2018-01-18T10:11:12.662Z,978.32
2018-01-18T10:12:12.776Z,978.24
2018-01-18T10:13:15.269Z,978.40
2018-01-18T10:14:12.795Z,978.35
2018-01-18T10:15:12.721Z,978.67
2018-01-18T10:16:12.733Z,978.47
2018-01-18T10:17:12.695Z,978.08
2018-01-18T10:18:12.763Z,978.42
2018-01-18T10:19:12.620Z,977.82
2018-01-18T10:20:12.643Z,978.34
2018-01-18T10:21:12.653Z,978.09
2018-01-18T10:22:12.644Z,978.72
2018-01-18T10:23:12.667Z,978.19
2018-01-18T10:24:12.617Z,978.48
2018-01-18T10:25:12.647Z,978.42
2018-01-18T10:26:12.728Z,978.36
2018-01-18T10:27:13.115Z,978.43
2018-01-18T10:28:12.865Z,978.33
2018-01-18T10:29:12.664Z,978.07
2018-01-18T10:30:12.659Z,978.20
2018-01-18T10:32:14.281Z,978.37
2018-01-18T10:33:13.464Z,978.54
2018-01-18T10:34:12.966Z,978.52
2018-01-18T10:35:12.927Z,978.30
2018-01-18T10:36:12.958Z,978.38
2018-01-18T10:37:13.092Z,978.32
2018-01-18T10:38:34.011Z,978.36
2018-01-18T10:39:12.920Z,978.33
2018-01-18T10:40:12.944Z,978.41
2018-01-18T10:41:12.990Z,978.37
2018-01-18T10:42:12.953Z,978.44
2018-01-18T10:43:17.733Z,978.30
2018-01-18T10:44:34.051Z,978.53
2018-01-18T10:45:13.037Z,978.65
2018-01-18T10:46:12.998Z,978.58
2018-01-18T10:47:14.239Z,978.66
2018-01-18T10:48:13.037Z,978.37
2018-01-18T10:49:12.983Z,978.28
2018-01-18T10:50:33.995Z,978.62
2018-01-18T10:51:12.979Z,978.65
2018-01-18T10:52:13.154Z,978.67
2018-01-18T10:53:13.009Z,978.83
2018-01-18T10:54:12.963Z,978.69
2018-01-18T10:55:13.714Z,978.54
2018-01-18T10:56:34.082Z,978.80
2018-01-18T10:57:13.662Z,979.14
2018-01-18T10:58:13.004Z,978.61
2018-01-18T10:59:13.105Z,978.66
2018-01-18T11:00:14.082Z,978.99
2018-01-18T11:01:13.360Z,978.89
2018-01-18T11:03:47.212Z,979.00
2018-01-18T11:04:44.857Z,979.27
2018-01-18T11:05:44.918Z,979.36
2018-01-18T11:06:45.192Z,978.96
2018-01-18T11:07:45.233Z,979.31
2018-01-18T11:08:44.840Z,979.37
2018-01-18T11:09:44.852Z,978.92
2018-01-18T11:10:44.777Z,979.24
2018-01-18T11:11:44.831Z,979.85
2018-01-18T11:12:44.764Z,979.26
2018-01-18T11:13:44.844Z,979.60
2018-01-18T11:14:44.816Z,980.24
2018-01-18T11:15:44.798Z,979.75
2018-01-18T11:16:44.772Z,980.24
2018-01-18T11:17:44.776Z,979.86
2018-01-18T11:18:44.861Z,979.84
2018-01-18T11:19:44.780Z,979.98
2018-01-18T11:20:44.786Z,980.47
2018-01-18T11:21:44.954Z,980.33
2018-01-18T11:22:44.761Z,979.88
2018-01-18T11:23:44.784Z,980.44
2018-01-18T11:24:44.781Z,980.45
2018-01-18T11:25:44.875Z,980.49
2018-01-18T11:26:44.969Z,980.01
2018-01-18T11:27:44.825Z,980.66
2018-01-18T11:28:44.788Z,980.38
2018-01-18T11:29:44.815Z,981.03
2018-01-18T11:30:44.915Z,980.90
2018-01-18T11:31:45.263Z,981.01
2018-01-18T11:32:45.992Z,980.71
2018-01-18T11:33:44.891Z,980.90
2018-01-18T11:34:44.786Z,980.89
2018-01-18T11:35:44.800Z,981.21
2018-01-18T11:36:44.828Z,981.35
2018-01-18T11:37:44.742Z,981.31
2018-01-18T11:38:44.745Z,981.10
2018-01-18T11:39:44.755Z,981.25
2018-01-18T11:40:44.744Z,982.07
2018-01-18T11:41:44.823Z,981.90
2018-01-18T11:42:44.796Z,982.00
2018-01-18T11:43:44.748Z,982.00
2018-01-18T11:44:44.755Z,981.60
2018-01-18T11:45:44.755Z,982.07
2018-01-18T11:46:44.753Z,982.34
2018-01-18T11:47:44.830Z,982.50
2018-01-18T11:48:44.778Z,981.99
2018-01-18T11:49:44.771Z,982.65
2018-01-18T11:50:44.751Z,982.46
2018-01-18T11:51:44.756Z,982.71
2018-01-18T11:52:44.822Z,982.70
2018-01-18T11:53:44.772Z,983.09
2018-01-18T11:54:44.763Z,983.24
2018-01-18T11:55:44.760Z,982.74
2018-01-18T11:56:44.731Z,983.03
2018-01-18T11:57:44.769Z,983.41
2018-01-18T11:58:44.733Z,983.15
2018-01-18T11:59:44.748Z,983.71
2018-01-18T12:00:44.757Z,983.29
2018-01-18T12:01:44.754Z,983.44
2018-01-18T12:02:45.280Z,983.65
2018-01-18T12:03:44.726Z,983.79
2018-01-18T12:04:44.715Z,983.72
2018-01-18T12:05:44.790Z,983.81
2018-01-18T12:06:44.734Z,983.56
2018-01-18T12:07:45.279Z,984.16
2018-01-18T12:08:44.775Z,984.28
2018-01-18T12:09:44.871Z,984.43
2018-01-18T12:10:44.829Z,984.12
2018-01-18T12:11:44.768Z,984.40
2018-01-18T12:12:44.715Z,984.49
2018-01-18T12:13:44.758Z,984.56
2018-01-18T12:14:44.797Z,984.42
2018-01-18T12:15:44.847Z,984.81
2018-01-18T12:16:44.730Z,984.76
2018-01-18T12:17:44.731Z,984.73
2018-01-18T12:18:44.819Z,985.05
2018-01-18T12:19:44.745Z,985.34
2018-01-18T12:20:44.819Z,985.16
2018-01-18T12:21:44.749Z,985.34
2018-01-18T12:22:44.729Z,985.18
2018-01-18T12:23:44.754Z,985.50
2018-01-18T12:24:44.792Z,985.24
2018-01-18T12:25:44.895Z,985.26
2018-01-18T12:26:44.793Z,985.68
2018-01-18T12:27:44.737Z,985.60
2018-01-18T12:28:44.800Z,985.89
2018-01-18T12:29:44.709Z,986.02
2018-01-18T12:30:44.897Z,985.88